Time;durP1;ratioP1;P1;durP2;ratioP2;P2;SDS_P1;SDS_P2;PMS_P1;PMS_P2;Temp;Humidity;BMP_temperature;BMP_pressure;BME280_temperature;BME280_humidity;BME280_pressure;Samples;Min_cycle;Max_cycle;Signal;HPM_P1;HPM_P2
2022/04/27 00:01:39;;;;;;;3.85;3.05;;;;;;;12.73;72.18;100704.66;1860217;77;21401;-79
2022/04/27 00:04:07;;;;;;;4.53;2.72;;;;;;;12.73;72.45;100698.55;1860025;77;21420;-79
2022/04/27 00:06:34;;;;;;;3.58;3.02;;;;;;;12.73;72.64;100699.39;1860003;77;20832;-79
2022/04/27 00:09:04;;;;;;;3.55;2.58;;;;;;;12.72;72.76;100700.83;1860181;77;20827;-80
2022/04/27 00:11:32;;;;;;;2.58;2.12;;;;;;;12.71;73.15;100705.23;1860044;77;21325;-80
2022/04/27 00:14:00;;;;;;;3.15;2.30;;;;;;;12.73;73.22;100710.40;1860078;77;20966;-80
2022/04/27 00:16:27;;;;;;;4.40;2.85;;;;;;;12.72;73.21;100707.41;1860344;76;20986;-79
2022/04/27 00:18:54;;;;;;;5.10;2.90;;;;;;;12.70;72.98;100704.03;1860256;77;20887;-79
2022/04/27 00:21:21;;;;;;;4.65;2.65;;;;;;;12.68;73.01;100713.34;1860108;77;20852;-78
2022/04/27 00:23:48;;;;;;;6.78;2.83;;;;;;;12.67;73.27;100716.06;1860169;77;21894;-79
2022/04/27 00:26:15;;;;;;;5.45;3.12;;;;;;;12.65;73.34;100716.19;1860628;77;20832;-79
2022/04/27 00:28:42;;;;;;;4.08;2.87;;;;;;;12.66;73.49;100715.23;1861307;77;20840;-80
2022/04/27 00:31:10;;;;;;;5.15;2.85;;;;;;;12.65;73.52;100712.24;1859963;77;20875;-80
2022/04/27 00:33:38;;;;;;;4.10;2.67;;;;;;;12.64;73.76;100713.17;1860146;77;21065;-80
2022/04/27 00:36:05;;;;;;;3.90;3.08;;;;;;;12.64;73.49;100723.22;1860199;77;21357;-80
2022/04/27 00:38:33;;;;;;;3.55;3.25;;;;;;;12.61;73.33;100720.80;1860097;77;21449;-78
2022/04/27 00:40:59;;;;;;;4.58;3.08;;;;;;;12.59;73.43;100724.01;1860161;77;20919;-80
2022/04/27 00:43:38;;;;;;;5.55;3.10;;;;;;;12.60;73.65;100724.84;1860191;77;20931;-79
2022/04/27 00:46:05;;;;;;;3.42;2.70;;;;;;;12.62;73.46;100724.27;1860299;76;21361;-79
2022/04/27 00:48:35;;;;;;;3.65;2.58;;;;;;;12.60;73.33;100730.10;1860165;77;20847;-80
2022/04/27 00:51:03;;;;;;;4.45;2.85;;;;;;;12.59;73.38;100734.53;1828745;77;20902;-80
2022/04/27 00:53:30;;;;;;;6.33;2.92;;;;;;;12.58;73.35;100732.86;1860106;77;21456;-80
2022/04/27 00:55:58;;;;;;;3.87;2.35;;;;;;;12.60;73.41;100740.14;1860044;76;21484;-80
2022/04/27 00:58:26;;;;;;;5.25;3.33;;;;;;;12.60;73.30;100741.46;1860121;76;21329;-79
2022/04/27 01:00:54;;;;;;;3.15;2.35;;;;;;;12.59;73.13;100743.73;1860101;76;21207;-80
2022/04/27 01:03:25;;;;;;;5.78;3.40;;;;;;;12.60;73.03;100741.94;1860070;76;20891;-80
2022/04/27 01:05:53;;;;;;;3.87;2.87;;;;;;;12.58;72.91;100735.94;1860065;77;20926;-80
2022/04/27 01:08:21;;;;;;;3.95;3.65;;;;;;;12.57;72.75;100743.47;1860036;77;20908;-80
2022/04/27 01:10:49;;;;;;;4.55;4.03;;;;;;;12.54;72.67;100739.71;1861150;77;20959;-77
2022/04/27 01:13:17;;;;;;;7.22;5.62;;;;;;;12.51;72.60;100733.34;1860991;76;21435;-79
2022/04/27 01:15:46;;;;;;;144.35;70.70;;;;;;;12.46;72.52;100740.23;1860013;77;21024;-80
2022/04/27 01:18:14;;;;;;;138.68;70.50;;;;;;;12.43;72.57;100743.08;1860121;77;20875;-80
2022/04/27 01:20:47;;;;;;;67.97;36.17;;;;;;;12.40;72.76;100743.26;1829042;77;20868;-80
2022/04/27 01:23:15;;;;;;;25.97;17.05;;;;;;;12.34;72.80;100741.89;1860112;77;21387;-80
2022/04/27 01:25:52;;;;;;;16.85;8.48;;;;;;;12.29;73.08;100747.06;1860035;77;21115;-80
2022/04/27 01:28:24;;;;;;;10.63;7.17;;;;;;;12.26;73.16;100749.42;1860108;77;20934;-78
2022/04/27 01:31:06;;;;;;;11.53;8.60;;;;;;;12.23;73.31;100753.58;1860133;76;20919;-79
2022/04/27 01:33:34;;;;;;;12.37;8.53;;;;;;;12.21;73.46;100751.05;1834866;78;20922;-80
2022/04/27 01:36:03;;;;;;;10.13;8.00;;;;;;;12.20;73.48;100756.39;1835111;78;20907;-80
2022/04/27 01:38:38;;;;;;;14.50;9.63;;;;;;;12.19;73.53;100766.07;1801361;78;21358;-80
2022/04/27 01:41:04;;;;;;;8.68;4.97;;;;;;;12.15;73.62;100768.52;1834920;77;20895;-80
2022/04/27 01:43:33;;;;;;;4.80;4.03;;;;;;;12.15;73.81;100765.89;1834859;77;20824;-79
2022/04/27 01:46:00;;;;;;;6.95;3.98;;;;;;;12.13;73.80;100763.83;1834752;77;21396;-79
2022/04/27 01:48:27;;;;;;;4.55;4.12;;;;;;;12.11;73.86;100768.34;1834869;77;20962;-80
2022/04/27 01:50:54;;;;;;;6.75;4.05;;;;;;;12.11;74.04;100770.13;1834735;77;21238;-79
2022/04/27 01:56:07;;;;;;;5.67;3.40;;;;;;;12.07;74.35;100774.73;1836788;77;20946;-79
2022/04/27 01:58:35;;;;;;;4.78;4.05;;;;;;;12.06;74.50;100775.69;1834179;78;20883;-78
2022/04/27 02:01:03;;;;;;;5.00;3.87;;;;;;;12.05;74.64;100777.95;1834827;78;21392;-79
2022/04/27 02:03:31;;;;;;;5.03;3.30;;;;;;;12.04;74.57;100777.56;1834674;77;21064;-79
2022/04/27 02:05:59;;;;;;;3.67;2.95;;;;;;;12.01;74.80;100774.66;1806937;78;20867;-80
2022/04/27 02:08:27;;;;;;;5.60;4.00;;;;;;;11.98;74.93;100766.98;1834674;76;20965;-79
2022/04/27 02:10:55;;;;;;;4.00;3.30;;;;;;;11.94;75.18;100769.88;1834644;77;20982;-80
2022/04/27 02:13:27;;;;;;;4.30;3.90;;;;;;;11.92;75.38;100764.74;1834753;77;20875;-80
2022/04/27 02:15:53;;;;;;;4.80;3.37;;;;;;;11.91;75.50;100772.23;1835085;76;21107;-78
2022/04/27 02:18:30;;;;;;;5.55;3.27;;;;;;;11.87;75.68;100775.13;1834703;77;20903;-79
2022/04/27 02:20:56;;;;;;;4.78;3.80;;;;;;;11.80;76.02;100779.47;1834913;78;20907;-80
2022/04/27 02:23:24;;;;;;;5.25;3.60;;;;;;;11.75;76.16;100782.00;1834920;77;20918;-79
2022/04/27 02:25:51;;;;;;;4.83;3.95;;;;;;;11.72;76.39;100788.77;1834822;77;20890;-79
2022/04/27 02:28:19;;;;;;;4.03;3.22;;;;;;;11.72;76.58;100791.40;1834778;78;20903;-81
2022/04/27 02:30:45;;;;;;;3.83;3.42;;;;;;;11.70;76.71;100790.64;1835151;77;21511;-79
2022/04/27 02:33:12;;;;;;;3.90;3.60;;;;;;;11.70;76.92;100799.36;1834631;77;20926;-78
2022/04/27 02:35:39;;;;;;;9.55;3.50;;;;;;;11.68;77.00;100799.09;1834701;77;20954;-78
2022/04/27 02:38:05;;;;;;;4.28;3.87;;;;;;;11.67;77.37;100794.76;1835111;77;21036;-79
2022/04/27 02:40:34;;;;;;;4.17;3.87;;;;;;;11.70;77.56;100789.33;1836249;77;21290;-79
2022/04/27 02:43:01;;;;;;;5.05;4.55;;;;;;;11.72;77.74;100793.55;1834675;77;21016;-79
2022/04/27 02:45:29;;;;;;;5.00;4.17;;;;;;;11.72;77.86;100796.17;1834647;77;20962;-80
2022/04/27 02:47:56;;;;;;;6.33;4.83;;;;;;;11.75;78.12;100809.59;1834712;77;21436;-80
2022/04/27 02:53:08;;;;;;;7.08;4.45;;;;;;;11.84;78.38;100812.95;1834961;77;21246;-81
2022/04/27 02:55:36;;;;;;;7.47;5.42;;;;;;;11.90;78.33;100817.87;1834863;77;20874;-78
2022/04/27 02:58:03;;;;;;;6.35;5.75;;;;;;;11.94;78.42;100817.19;1835137;76;21361;-80
2022/04/27 03:00:33;;;;;;;6.75;5.50;;;;;;;11.97;78.33;100824.42;1835910;77;20914;-79
2022/04/27 03:03:04;;;;;;;9.33;6.87;;;;;;;12.01;78.43;100821.98;1836993;78;20832;-78
2022/04/27 03:05:30;;;;;;;7.12;6.35;;;;;;;12.07;78.51;100820.73;1837698;77;21105;-77
2022/04/27 03:07:58;;;;;;;7.65;6.83;;;;;;;12.11;78.46;100818.28;1838680;77;20922;-77
2022/04/27 03:10:25;;;;;;;6.50;5.97;;;;;;;12.19;78.49;100819.97;1837079;76;20962;-81
2022/04/27 03:12:52;;;;;;;6.75;6.15;;;;;;;12.28;78.33;100820.33;1835067;77;20950;-80
2022/04/27 03:15:19;;;;;;;6.58;5.97;;;;;;;12.35;78.07;100825.09;1834996;77;21463;-79
2022/04/27 03:18:16;;;;;;;7.95;7.17;;;;;;;12.39;77.73;100820.02;1834924;77;21267;-80
2022/04/27 03:20:17;;;;;;;6.28;5.78;;;;;;;12.42;77.59;100822.91;1830713;77;20857;-80
2022/04/27 03:22:45;;;;;;;7.22;6.45;;;;;;;12.46;77.45;100828.34;1835275;77;20867;-80
2022/04/27 03:25:12;;;;;;;7.40;5.78;;;;;;;12.51;77.18;100841.20;1836264;77;20883;-79
2022/04/27 03:27:38;;;;;;;6.20;5.62;;;;;;;12.51;77.16;100839.41;1835117;78;20864;-80
2022/04/27 03:30:07;;;;;;;7.17;6.22;;;;;;;12.53;77.09;100841.47;1834925;76;21214;-79
2022/04/27 03:32:35;;;;;;;6.92;6.20;;;;;;;12.57;77.14;100847.39;1840034;77;20870;-78
2022/04/27 03:35:02;;;;;;;5.87;5.37;;;;;;;12.60;77.01;100849.33;1849517;77;20929;-81
2022/04/27 03:37:31;;;;;;;7.10;6.40;;;;;;;12.62;76.92;100850.56;1849399;77;20881;-78
2022/04/27 03:39:58;;;;;;;5.97;5.17;;;;;;;12.64;77.02;100856.09;1849370;77;20986;-81
2022/04/27 03:42:26;;;;;;;6.37;5.33;;;;;;;12.69;76.88;100858.89;1849448;77;20904;-79
2022/04/27 03:44:54;;;;;;;6.90;6.20;;;;;;;12.73;76.99;100860.39;1848779;77;21380;-81
2022/04/27 03:47:25;;;;;;;5.85;5.35;;;;;;;12.79;76.83;100854.73;1849425;77;20984;-80
2022/04/27 03:49:55;;;;;;;6.17;5.53;;;;;;;12.83;76.70;100856.22;1849453;77;20885;-80
2022/04/27 03:52:25;;;;;;;6.28;5.40;;;;;;;12.88;76.61;100861.19;1849290;76;20877;-80
2022/04/27 03:54:54;;;;;;;8.03;5.62;;;;;;;12.90;76.61;100868.03;1849388;77;21210;-81
2022/04/27 03:57:21;;;;;;;5.53;4.90;;;;;;;12.94;76.70;100868.66;1849263;77;20952;-81
2022/04/27 03:59:48;;;;;;;6.25;4.97;;;;;;;12.99;76.56;100877.11;1849714;77;21488;-80
2022/04/27 04:02:14;;;;;;;7.50;6.05;;;;;;;13.05;76.47;100884.13;1849287;77;20874;-79
2022/04/27 04:04:42;;;;;;;4.78;4.37;;;;;;;13.12;76.02;100885.89;1849429;77;20920;-80
2022/04/27 04:07:09;;;;;;;4.95;4.45;;;;;;;13.15;75.64;100883.03;1850435;77;21123;-79
2022/04/27 04:09:40;;;;;;;5.70;4.28;;;;;;;13.13;75.58;100894.14;1849461;77;21374;-80
2022/04/27 04:12:07;;;;;;;7.17;4.92;;;;;;;13.13;75.38;100891.98;1849424;77;21342;-80
2022/04/27 04:14:54;;;;;;;5.45;4.95;;;;;;;13.13;75.35;100903.36;1849368;77;20861;-81
2022/04/27 04:17:25;;;;;;;4.97;4.55;;;;;;;13.14;75.31;100898.92;1847350;77;21323;-80
2022/04/27 04:19:56;;;;;;;5.58;5.08;;;;;;;13.17;75.17;100903.53;1846924;77;21520;-80
2022/04/27 04:22:42;;;;;;;10.70;5.22;;;;;;;13.21;75.05;100916.88;1848585;77;20877;-81
2022/04/27 04:30:46;;;;;;;6.17;5.03;;;;;;;13.34;74.77;100922.66;1849516;76;20968;-80
2022/04/27 04:33:16;;;;;;;4.83;4.30;;;;;;;13.35;74.69;100923.05;1838974;75;21424;-80
2022/04/27 04:35:46;;;;;;;7.15;5.00;;;;;;;13.37;74.42;100928.58;1834166;77;20863;-80
2022/04/27 04:38:13;;;;;;;5.37;4.87;;;;;;;13.40;74.14;100924.41;1834936;76;20871;-80
2022/04/27 04:40:40;;;;;;;6.08;5.22;;;;;;;13.42;74.07;100936.17;1834655;77;20922;-79
2022/04/27 04:43:07;;;;;;;5.75;5.15;;;;;;;13.43;73.97;100933.44;1834943;77;20974;-80
2022/04/27 04:45:35;;;;;;;5.78;5.28;;;;;;;13.42;73.73;100937.48;1837428;77;21223;-81
2022/04/27 04:48:08;;;;;;;5.12;4.72;;;;;;;13.43;73.57;100941.34;1813920;77;20863;-81
2022/04/27 04:50:50;;;;;;;11.00;5.83;;;;;;;13.42;73.49;100933.53;1832881;77;20954;-79
2022/04/27 04:53:20;;;;;;;6.15;5.55;;;;;;;13.40;73.49;100942.84;1833444;78;20918;-80
2022/04/27 04:56:06;;;;;;;4.78;4.37;;;;;;;13.40;73.51;100943.33;1834925;76;20831;-80
2022/04/27 04:58:51;;;;;;;5.33;4.72;;;;;;;13.38;73.51;100951.80;1834941;77;21774;-80
2022/04/27 05:01:19;;;;;;;5.97;5.37;;;;;;;13.36;73.48;100951.06;1832284;77;20898;-80
2022/04/27 05:03:57;;;;;;;5.55;4.95;;;;;;;13.32;73.56;100954.84;1834282;77;20847;-81
2022/04/27 05:06:32;;;;;;;5.37;4.87;;;;;;;13.32;73.66;100961.42;1834399;78;20918;-80
2022/04/27 05:09:04;;;;;;;6.33;5.30;;;;;;;13.33;73.57;100956.06;1804350;77;21428;-80
2022/04/27 05:11:50;;;;;;;5.78;4.53;;;;;;;13.36;73.47;100963.78;1834928;77;21255;-80
2022/04/27 05:14:29;;;;;;;4.87;4.37;;;;;;;13.39;73.62;100976.73;1832469;77;20874;-80
2022/04/27 05:16:58;;;;;;;5.87;4.67;;;;;;;13.39;73.62;100976.73;1832310;77;20946;-81
2022/04/27 05:19:27;;;;;;;4.87;4.47;;;;;;;13.39;73.46;100983.33;1832851;77;21618;-81
2022/04/27 05:22:12;;;;;;;5.47;4.97;;;;;;;13.38;73.30;100988.69;1834844;77;20902;-80
2022/04/27 05:24:46;;;;;;;4.78;3.87;;;;;;;13.41;73.42;100993.77;1801582;77;22132;-80
2022/04/27 05:27:31;;;;;;;5.45;4.85;;;;;;;13.43;73.18;100995.35;1832047;76;21383;-81
2022/04/27 05:32:46;;;;;;;7.87;4.17;;;;;;;13.55;73.08;100995.00;1837653;77;20935;-80
2022/04/27 05:35:41;;;;;;;5.30;4.60;;;;;;;13.62;72.80;100990.17;1860972;77;20867;-76
2022/04/27 05:38:10;;;;;;;4.20;3.80;;;;;;;13.70;72.67;100997.58;1860506;77;22062;-81
2022/04/27 05:40:43;;;;;;;4.67;4.03;;;;;;;13.75;72.64;100996.30;1828233;77;20914;-81
2022/04/27 05:43:16;;;;;;;4.87;4.47;;;;;;;13.86;72.98;101000.38;1857775;77;20899;-82
2022/04/27 05:45:46;;;;;;;7.00;3.75;;;;;;;13.99;72.56;100996.44;1859622;77;21384;-81
2022/04/27 05:48:21;;;;;;;4.80;4.30;;;;;;;14.12;72.26;100995.58;1857065;76;20966;-80
2022/04/27 05:51:08;;;;;;;4.03;3.62;;;;;;;14.22;71.69;100998.80;1857338;77;21227;-81
2022/04/27 05:53:54;;;;;;;6.08;4.22;;;;;;;14.33;71.22;101001.19;1860298;76;20859;-82
2022/04/27 05:56:38;;;;;;;4.67;3.67;;;;;;;14.41;70.75;101005.46;1857235;77;20899;-81
2022/04/27 05:59:08;;;;;;;4.37;3.98;;;;;;;14.46;70.18;101005.48;1859327;77;21016;-78
2022/04/27 06:01:37;;;;;;;8.70;4.37;;;;;;;14.54;69.87;101006.28;1860367;77;20879;-80
2022/04/27 06:04:05;;;;;;;5.62;3.77;;;;;;;14.54;69.87;101006.28;1860489;77;21137;-83
2022/04/27 06:06:33;;;;;;;5.83;4.20;;;;;;;14.66;69.62;101009.87;1860059;77;20875;-80
2022/04/27 06:09:00;;;;;;;7.53;3.72;;;;;;;14.80;69.40;101011.53;1860396;77;20911;-82
2022/04/27 06:11:33;;;;;;;4.67;3.42;;;;;;;14.97;68.93;101016.45;1858005;77;20911;-83
2022/04/27 06:14:18;;;;;;;4.67;3.10;;;;;;;15.57;66.59;101016.51;1862584;77;21029;-80
2022/04/27 06:16:47;;;;;;;3.83;3.52;;;;;;;15.57;66.59;101016.51;1860720;77;20910;-81
2022/04/27 06:19:17;;;;;;;3.90;3.60;;;;;;;15.90;65.49;101024.56;1863771;77;20919;-79
2022/04/27 06:21:43;;;;;;;3.08;2.80;;;;;;;16.31;64.77;101021.85;1863327;77;20813;-75
2022/04/27 06:24:10;;;;;;;2.85;2.65;;;;;;;16.89;63.28;101019.08;1860915;77;20891;-79
2022/04/27 06:26:39;;;;;;;4.15;2.90;;;;;;;17.31;61.25;101028.98;1860453;77;20986;-80
2022/04/27 06:29:06;;;;;;;5.08;2.90;;;;;;;17.53;60.63;101030.22;1860775;77;21039;-81
2022/04/27 06:31:32;;;;;;;3.02;2.72;;;;;;;17.58;59.65;101032.49;1860156;77;21630;-79
2022/04/27 06:34:02;;;;;;;4.00;3.20;;;;;;;17.45;59.06;101041.10;1853980;77;20980;-79
2022/04/27 06:36:30;;;;;;;4.10;2.85;;;;;;;17.32;59.32;101043.91;1849879;76;21449;-81
2022/04/27 06:38:58;;;;;;;4.15;2.92;;;;;;;17.28;59.45;101042.51;1849747;77;20983;-81
2022/04/27 06:41:27;;;;;;;2.47;2.27;;;;;;;17.44;59.79;101040.77;1847915;77;21182;-81
2022/04/27 06:43:56;;;;;;;2.65;2.02;;;;;;;17.58;58.72;101038.63;1792646;77;20833;-82
2022/04/27 06:48:04;;;;;;;2.20;2.00;;;;;;;17.80;57.28;101044.81;1884345;75;23150;-81
2022/04/27 06:50:49;;;;;;;2.55;2.37;;;;;;;17.80;57.28;101044.81;1861205;77;20860;-81
2022/04/27 06:53:37;;;;;;;2.98;2.33;;;;;;;17.79;56.14;101040.48;1757959;77;21297;-82
2022/04/27 06:56:06;;;;;;;2.67;2.35;;;;;;;17.80;55.95;101048.79;1778757;77;20840;-82
2022/04/27 06:58:39;;;;;;;4.30;2.83;;;;;;;17.88;55.94;101048.20;1859614;77;21384;-85
2022/04/27 07:01:07;;;;;;;2.50;2.33;;;;;;;17.98;56.08;101051.73;1858613;77;20934;-82
2022/04/27 07:03:38;;;;;;;2.22;1.80;;;;;;;17.99;55.43;101047.64;1861788;76;20927;-79
2022/04/27 07:06:07;;;;;;;3.98;2.37;;;;;;;17.90;55.68;101048.42;1861895;77;20910;-82
2022/04/27 07:08:34;;;;;;;3.67;2.75;;;;;;;17.99;56.20;101043.66;1861544;77;20978;-82
2022/04/27 07:11:03;;;;;;;5.62;4.40;;;;;;;18.41;55.95;101044.94;1861631;77;20864;-83
2022/04/27 07:13:30;;;;;;;3.47;2.33;;;;;;;18.96;55.60;101043.27;1861121;77;20887;-82
2022/04/27 07:16:00;;;;;;;3.92;2.75;;;;;;;19.65;53.61;101049.50;1861633;77;20946;-81
2022/04/27 07:18:30;;;;;;;2.42;2.22;;;;;;;20.31;51.40;101041.23;1861599;76;20958;-81
2022/04/27 07:20:57;;;;;;;2.27;1.80;;;;;;;21.02;50.57;101039.33;1861281;77;20994;-81
2022/04/27 07:23:25;;;;;;;2.05;1.90;;;;;;;21.58;47.49;101042.73;1861394;76;20868;-81
2022/04/27 07:25:52;;;;;;;2.10;1.90;;;;;;;21.86;46.63;101040.30;1861862;77;21009;-82
2022/04/27 07:28:20;;;;;;;1.87;1.75;;;;;;;22.17;46.13;101039.02;1861738;77;21435;-81
2022/04/27 07:30:47;;;;;;;2.20;2.08;;;;;;;22.58;44.51;101052.12;1861611;77;21140;-81
2022/04/27 07:33:14;;;;;;;3.45;1.72;;;;;;;23.04;43.54;101044.64;1861859;77;20849;-85
2022/04/27 07:35:44;;;;;;;2.40;1.82;;;;;;;23.50;42.56;101038.37;1861631;77;20891;-81
2022/04/27 07:38:10;;;;;;;2.75;1.67;;;;;;;23.89;41.29;101044.91;1862047;76;20923;-82
2022/04/27 07:40:38;;;;;;;3.12;2.17;;;;;;;23.98;40.12;101041.21;1861653;77;21416;-80
2022/04/27 07:43:05;;;;;;;2.30;2.10;;;;;;;23.84;40.55;101045.93;1862357;77;21271;-81
2022/04/27 07:45:33;;;;;;;1.72;1.57;;;;;;;23.54;40.38;101042.86;1861512;77;20824;-81
2022/04/27 07:48:00;;;;;;;1.62;1.52;;;;;;;23.18;41.01;101038.64;1853140;77;20920;-77
2022/04/27 07:50:26;;;;;;;3.12;2.25;;;;;;;22.85;41.92;101034.17;1852107;77;21086;-79
2022/04/27 07:52:56;;;;;;;1.98;1.87;;;;;;;22.56;42.11;101042.08;1851101;77;20905;-81
2022/04/27 07:55:23;;;;;;;1.85;1.72;;;;;;;22.40;42.58;101041.51;1850522;77;21205;-82
2022/04/27 07:57:50;;;;;;;2.10;1.90;;;;;;;22.25;43.22;101039.08;1850583;77;20987;-81
2022/04/27 08:00:18;;;;;;;1.50;1.40;;;;;;;22.46;42.74;101034.70;1849466;77;20956;-81
2022/04/27 08:02:47;;;;;;;2.72;1.80;;;;;;;22.62;43.56;101032.09;1849738;77;20854;-81
2022/04/27 08:05:17;;;;;;;3.15;2.10;;;;;;;22.84;41.60;101032.52;1849632;76;20900;-83
2022/04/27 08:07:48;;;;;;;1.67;1.57;;;;;;;23.01;41.31;101028.06;1849825;76;20908;-81
2022/04/27 08:10:19;;;;;;;1.80;1.70;;;;;;;23.03;40.17;101026.06;1849476;77;21303;-82
2022/04/27 08:12:48;;;;;;;2.30;1.95;;;;;;;22.80;39.98;101033.33;1849599;77;20874;-82
2022/04/27 08:15:18;;;;;;;1.65;1.55;;;;;;;22.61;40.85;101029.57;1849620;77;21003;-83
2022/04/27 08:18:06;;;;;;;2.02;1.82;;;;;;;22.48;41.13;101032.20;1849575;77;20937;-82
2022/04/27 08:23:28;;;;;;;4.05;2.35;;;;;;;23.02;41.08;101027.08;1849886;77;20948;-82
2022/04/27 08:25:59;;;;;;;3.05;2.75;;;;;;;22.89;40.47;101037.70;1849501;77;21340;-82
2022/04/27 08:28:30;;;;;;;2.58;2.30;;;;;;;22.60;40.50;101043.95;1850142;77;21300;-83
2022/04/27 08:30:59;;;;;;;3.35;2.15;;;;;;;22.26;41.93;101051.46;1823826;77;20893;-83
2022/04/27 08:33:25;;;;;;;2.47;2.27;;;;;;;22.05;42.08;101050.44;1850872;77;21214;-80
2022/04/27 08:35:55;;;;;;;5.72;2.42;;;;;;;21.85;42.67;101049.30;1850123;77;20975;-80
2022/04/27 08:38:21;;;;;;;2.75;2.02;;;;;;;21.74;43.21;101054.88;1849898;77;20897;-81
2022/04/27 08:40:47;;;;;;;2.05;1.75;;;;;;;21.61;43.17;101049.09;1849851;77;21434;-82
2022/04/27 08:43:14;;;;;;;2.50;1.47;;;;;;;21.39;43.32;101057.89;1850454;77;21311;-82
2022/04/27 08:45:42;;;;;;;1.30;1.20;;;;;;;21.19;42.89;101056.32;1849856;77;21206;-80
2022/04/27 08:48:12;;;;;;;3.52;1.50;;;;;;;21.13;44.37;101056.45;1857324;77;20942;-80
2022/04/27 08:50:40;;;;;;;1.57;1.47;;;;;;;21.12;44.41;101061.42;1860371;77;20990;-81
2022/04/27 08:53:07;;;;;;;2.15;1.70;;;;;;;21.01;43.59;101060.30;1860183;77;20927;-80
2022/04/27 08:55:38;;;;;;;2.08;1.98;;;;;;;20.88;44.06;101060.17;1860219;77;20902;-81
2022/04/27 08:58:16;;;;;;;2.58;2.05;;;;;;;20.88;45.08;101060.17;1860206;77;20990;-81
2022/04/27 09:00:44;;;;;;;2.27;2.08;;;;;;;20.93;44.97;101058.39;1859606;77;21416;-82
2022/04/27 09:03:34;;;;;;;2.30;2.15;;;;;;;21.18;44.46;101061.33;1860134;77;20918;-82
2022/04/27 09:06:13;;;;;;;2.40;1.65;;;;;;;21.30;44.74;101058.80;1829211;77;21491;-82
2022/04/27 09:08:48;;;;;;;1.42;1.32;;;;;;;21.58;43.04;101062.25;1860249;77;20954;-82
2022/04/27 09:11:26;;;;;;;1.50;1.40;;;;;;;21.67;43.39;101055.16;1860175;76;20852;-80
2022/04/27 09:13:56;;;;;;;3.67;2.25;;;;;;;21.67;42.94;101052.48;1860547;76;20856;-82
2022/04/27 09:16:25;;;;;;;2.55;2.35;;;;;;;21.63;42.47;101051.11;1861540;77;20949;-80
2022/04/27 09:22:03;;;;;;;7.50;1.65;;;;;;;21.34;41.93;101053.48;1855250;77;21442;-81
2022/04/27 09:24:48;;;;;;;4.40;2.15;;;;;;;21.45;42.57;101057.29;1853158;77;21251;-80
2022/04/27 09:27:18;;;;;;;1.92;1.50;;;;;;;21.53;43.36;101060.05;1854484;77;20874;-80
2022/04/27 09:30:14;;;;;;;2.17;1.32;;;;;;;21.79;42.58;101055.75;1855631;77;20850;-79
2022/04/27 09:32:52;;;;;;;1.55;1.20;;;;;;;22.08;41.18;101060.83;1855929;77;20874;-78
2022/04/27 09:35:34;;;;;;;3.83;1.35;;;;;;;22.56;40.91;101052.27;1852267;77;20968;-80
2022/04/27 09:38:16;;;;;;;1.12;1.00;;;;;;;22.93;40.72;101046.25;1855553;77;21201;-82
2022/04/27 09:40:59;;;;;;;1.20;1.10;;;;;;;23.06;38.75;101048.50;1855440;77;20878;-84
2022/04/27 09:43:47;;;;;;;2.00;1.22;;;;;;;22.87;38.44;101046.89;1854097;77;20913;-82
2022/04/27 09:46:22;;;;;;;2.92;1.20;;;;;;;22.55;38.32;101045.26;1854180;77;20885;-81
2022/04/27 09:49:11;;;;;;;4.15;1.80;;;;;;;22.23;38.96;101051.76;1857879;77;20952;-80
2022/04/27 09:51:52;;;;;;;2.47;1.40;;;;;;;21.98;40.13;101048.89;1858460;77;21142;-83
2022/04/27 09:54:23;;;;;;;2.30;1.22;;;;;;;21.73;40.77;101052.71;1858310;77;20881;-82
2022/04/27 09:57:00;;;;;;;4.35;1.40;;;;;;;21.50;40.57;101054.20;1856684;77;20881;-82
2022/04/27 09:59:32;;;;;;;2.77;1.22;;;;;;;21.22;41.10;101056.05;1772261;80;20971;-82
2022/04/27 10:02:10;;;;;;;3.72;1.45;;;;;;;20.94;41.57;101057.39;1797789;79;20990;-81
2022/04/27 10:04:39;;;;;;;1.30;1.20;;;;;;;20.83;41.94;101057.59;1797004;79;21104;-81
2022/04/27 10:07:07;;;;;;;1.47;1.37;;;;;;;20.77;42.51;101068.37;1798735;79;20915;-82
2022/04/27 10:09:35;;;;;;;1.12;0.93;;;;;;;20.74;42.51;101055.81;1817424;78;20904;-81
2022/04/27 10:12:06;;;;;;;1.37;1.27;;;;;;;20.70;42.48;101057.45;1817142;79;21477;-80
2022/04/27 10:14:34;;;;;;;1.70;0.93;;;;;;;20.56;41.65;101064.55;1816892;79;21326;-80
2022/04/27 10:17:02;;;;;;;1.42;1.20;;;;;;;20.44;42.33;101065.23;1816661;79;21082;-83
2022/04/27 10:19:29;;;;;;;2.33;1.15;;;;;;;20.40;42.56;101057.17;1816683;79;21354;-81
2022/04/27 10:21:58;;;;;;;2.87;1.40;;;;;;;20.51;42.78;101057.50;1816797;79;20884;-81
2022/04/27 10:24:49;;;;;;;1.20;1.10;;;;;;;20.83;42.79;101061.13;1816694;79;20916;-82
2022/04/27 10:27:21;;;;;;;2.67;0.93;;;;;;;21.02;42.32;101060.16;1796814;79;21021;-82
2022/04/27 10:30:12;;;;;;;1.10;1.00;;;;;;;21.37;41.26;101052.37;1796937;79;21269;-82
2022/04/27 10:32:49;;;;;;;2.90;1.30;;;;;;;21.46;40.85;101058.98;1796927;79;21461;-83
2022/04/27 10:35:27;;;;;;;2.33;0.93;;;;;;;21.50;40.21;101061.70;1797036;79;20966;-81
2022/04/27 10:38:02;;;;;;;3.62;0.78;;;;;;;21.44;40.11;101066.80;1796746;79;21069;-83
2022/04/27 10:40:39;;;;;;;1.77;1.05;;;;;;;21.37;40.04;101063.04;1796969;79;20921;-82
2022/04/27 10:43:17;;;;;;;6.40;1.05;;;;;;;21.26;40.81;101064.09;1796854;79;20911;-82
2022/04/27 10:45:45;;;;;;;1.02;0.98;;;;;;;21.24;40.12;101070.07;1770492;79;20852;-81
2022/04/27 10:48:27;;;;;;;2.35;0.80;;;;;;;21.14;39.58;101066.61;1779805;79;20932;-81
2022/04/27 10:51:03;;;;;;;6.75;1.27;;;;;;;21.05;39.69;101071.02;1765216;80;20948;-81
2022/04/27 10:53:40;;;;;;;1.65;1.35;;;;;;;20.95;40.07;101071.58;1789351;79;20925;-82
2022/04/27 10:56:26;;;;;;;1.12;0.62;;;;;;;20.85;40.88;101069.81;1788923;78;21910;-80
2022/04/27 10:58:53;;;;;;;2.08;0.82;;;;;;;20.79;39.06;101076.23;1789214;78;20890;-80
2022/04/27 11:01:29;;;;;;;1.72;0.55;;;;;;;20.61;38.74;101069.47;1789308;79;20858;-81
2022/04/27 11:04:05;;;;;;;1.07;0.50;;;;;;;20.48;38.38;101075.95;1789259;79;20913;-81
2022/04/27 11:06:55;;;;;;;0.70;0.60;;;;;;;20.42;39.43;101070.36;1789286;78;20989;-80
2022/04/27 11:09:25;;;;;;;1.45;0.70;;;;;;;20.55;39.18;101066.05;1753862;78;21129;-81
2022/04/27 11:11:55;;;;;;;1.15;0.57;;;;;;;20.84;38.92;101070.78;1789341;79;20889;-81
2022/04/27 11:14:31;;;;;;;0.65;0.65;;;;;;;21.09;38.62;101063.90;1789319;78;21380;-81
2022/04/27 11:16:59;;;;;;;0.57;0.57;;;;;;;21.28;38.00;101062.12;1789333;78;21615;-81
2022/04/27 11:19:39;;;;;;;0.47;0.45;;;;;;;21.49;37.71;101062.67;1789314;78;21004;-80
2022/04/27 11:22:14;;;;;;;2.33;0.70;;;;;;;21.59;37.51;101066.61;1789541;79;21334;-80
2022/04/27 11:24:44;;;;;;;1.57;1.00;;;;;;;21.62;37.68;101061.46;1789662;79;20941;-80
2022/04/27 11:27:11;;;;;;;1.50;0.70;;;;;;;21.59;36.73;101062.61;1789230;78;20976;-81
2022/04/27 11:29:39;;;;;;;2.22;0.80;;;;;;;21.64;36.52;101066.98;1790591;78;20948;-81
2022/04/27 11:32:07;;;;;;;1.35;0.78;;;;;;;21.78;36.76;101067.44;1789690;80;20893;-82
2022/04/27 11:34:35;;;;;;;2.00;0.75;;;;;;;22.01;37.29;101068.63;1789537;78;20890;-81
2022/04/27 11:37:17;;;;;;;1.85;0.50;;;;;;;22.26;36.92;101064.82;1789507;78;20893;-81
2022/04/27 11:39:45;;;;;;;2.10;0.50;;;;;;;22.46;35.09;101058.25;1789609;79;21367;-81
2022/04/27 11:42:13;;;;;;;2.45;0.90;;;;;;;22.64;35.80;101048.81;1789786;78;20937;-82
2022/04/27 11:44:40;;;;;;;1.77;0.78;;;;;;;22.82;35.13;101051.39;1789762;78;20973;-82
2022/04/27 11:47:31;;;;;;;2.05;0.68;;;;;;;22.90;34.27;101050.56;1789452;79;21426;-83
2022/04/27 11:50:03;;;;;;;0.55;0.55;;;;;;;22.95;34.04;101037.56;1789675;78;20993;-81
2022/04/27 11:52:32;;;;;;;0.90;0.70;;;;;;;22.94;33.97;101043.90;1789996;80;20881;-81
2022/04/27 11:55:12;;;;;;;1.05;0.53;;;;;;;22.91;33.62;101038.38;1789863;78;20910;-82
2022/04/27 11:57:40;;;;;;;2.17;0.60;;;;;;;22.89;33.05;101043.05;1789713;78;21478;-81
2022/04/27 12:00:09;;;;;;;0.47;0.47;;;;;;;22.84;33.42;101039.20;1789923;79;21276;-82
2022/04/27 12:02:43;;;;;;;0.72;0.60;;;;;;;22.81;33.31;101043.52;1789752;79;20854;-81
2022/04/27 12:05:10;;;;;;;2.35;0.62;;;;;;;22.68;33.76;101048.84;1789704;78;20980;-85